createdAt,value
2022-12-04T00:01:20.903Z,70.6
2022-12-04T00:03:25.282Z,79.8
2022-12-04T00:05:26.814Z,75.4
2022-12-04T00:07:28.473Z,80.7
2022-12-04T00:09:32.705Z,60.2
2022-12-04T00:11:34.403Z,69.4
2022-12-04T00:13:35.920Z,78.8
2022-12-04T00:15:40.221Z,69.3
2022-12-04T00:17:41.824Z,82.4
2022-12-04T00:19:43.435Z,82.8
2022-12-04T00:23:49.382Z,77.7
2022-12-04T00:25:51.001Z,78.6
2022-12-04T00:27:55.273Z,75.8
2022-12-04T00:29:57.013Z,76.9
2022-12-04T00:31:58.581Z,94.5
2022-12-04T00:34:07.805Z,81
2022-12-04T00:36:04.368Z,85.6
2022-12-04T00:38:05.976Z,72.3
2022-12-04T00:43:19.624Z,76.6
2022-12-04T00:45:21.274Z,75
2022-12-04T00:47:22.823Z,68.8
2022-12-04T00:49:27.084Z,79.5
2022-12-04T00:51:28.686Z,61.9
2022-12-04T00:53:30.302Z,72.1
2022-12-04T00:55:34.571Z,75
2022-12-04T00:59:37.762Z,78.1
2022-12-04T01:01:42.177Z,91.7
2022-12-04T01:03:43.653Z,91.4
2022-12-04T01:05:45.269Z,65.9
2022-12-04T01:07:49.679Z,77.9
2022-12-04T01:09:51.243Z,59.6
2022-12-04T01:11:52.720Z,73.1
2022-12-04T01:13:57.053Z,72.1
2022-12-04T01:15:58.689Z,75
2022-12-04T01:18:00.236Z,79.8
2022-12-04T01:22:06.109Z,74
2022-12-04T01:24:07.753Z,72.2
2022-12-04T01:26:11.973Z,76.9
2022-12-04T01:28:13.590Z,71.3
2022-12-04T01:30:15.180Z,59.4
2022-12-04T01:32:19.485Z,81.6
2022-12-04T01:36:22.720Z,68.2
2022-12-04T01:38:26.999Z,86.6
2022-12-04T01:42:30.216Z,69.6
2022-12-04T01:52:43.600Z,86.2
2022-12-04T01:54:45.217Z,91.3
2022-12-04T01:56:49.523Z,84.3
2022-12-04T02:00:53.853Z,78.5
2022-12-04T02:02:57.078Z,86
2022-12-04T02:04:58.570Z,76.3
2022-12-04T02:07:00.185Z,72.9
2022-12-04T02:09:04.485Z,77.2
2022-12-04T02:11:06.085Z,78.5
2022-12-04T02:15:12.012Z,70.8
2022-12-04T02:17:13.623Z,58.4
2022-12-04T02:19:15.216Z,68.8
2022-12-04T02:21:19.534Z,74.2
2022-12-04T02:23:21.116Z,73.2
2022-12-04T02:25:22.741Z,74.3
2022-12-04T02:34:21.674Z,64.3
2022-12-04T02:36:23.281Z,61.3
2022-12-04T02:38:24.877Z,58.5
2022-12-04T02:40:29.197Z,73.8
2022-12-04T02:42:30.751Z,75.9
2022-12-04T02:44:32.394Z,84.9
2022-12-04T02:46:36.694Z,89
2022-12-04T02:48:38.282Z,69.8
2022-12-04T02:50:39.887Z,71.9
2022-12-04T02:52:44.161Z,72.6
2022-12-04T02:54:45.804Z,87.8
2022-12-04T02:56:47.400Z,69.4
2022-12-04T03:00:53.347Z,70.8
2022-12-04T03:04:59.190Z,77.2
2022-12-04T03:07:00.802Z,74.3
2022-12-04T03:09:02.423Z,72.5
2022-12-04T03:18:15.670Z,75.7
2022-12-04T03:23:30.575Z,93.6
2022-12-04T03:25:32.165Z,84.2
2022-12-04T03:27:33.772Z,76.8
2022-12-04T03:31:39.670Z,81.1
2022-12-04T03:33:41.291Z,78.1
2022-12-04T03:45:56.389Z,75.9
2022-12-04T03:50:02.223Z,73.7
2022-12-04T03:52:03.863Z,74.4
2022-12-04T03:54:08.138Z,80.9
2022-12-04T03:58:11.352Z,80.8
2022-12-04T04:07:20.480Z,77.3
2022-12-04T04:09:24.769Z,69.2
2022-12-04T04:13:27.984Z,71.4
2022-12-04T04:15:32.367Z,78.6
2022-12-04T04:26:52.097Z,91
2022-12-04T04:28:53.662Z,79.4
2022-12-04T04:30:57.963Z,75.9
2022-12-04T04:32:59.570Z,84.3
2022-12-04T04:35:01.156Z,86.1
2022-12-04T04:37:05.459Z,71.4
2022-12-04T04:39:07.065Z,80.7
2022-12-04T04:43:12.935Z,79.3
2022-12-04T04:45:14.557Z,89.1
2022-12-04T04:47:16.122Z,81.7
2022-12-04T04:49:20.443Z,72.6
2022-12-04T04:51:22.090Z,77.9
2022-12-04T04:53:23.620Z,73.8
2022-12-04T04:55:27.923Z,86.3
2022-12-04T04:57:29.526Z,78.2
2022-12-04T04:59:31.099Z,83.2
2022-12-04T05:01:35.493Z,84.6
2022-12-04T05:03:37.009Z,84.8
2022-12-04T05:05:38.620Z,88.6
2022-12-04T05:07:43.037Z,63.6
2022-12-04T05:13:50.405Z,76
2022-12-04T05:15:52.078Z,76.6
2022-12-04T05:17:53.609Z,78.9
2022-12-04T05:21:59.488Z,73.6
2022-12-04T05:24:01.099Z,68.1
2022-12-04T05:26:05.423Z,79.9
2022-12-04T05:28:06.977Z,69.7
2022-12-04T05:30:08.550Z,88.6
2022-12-04T05:32:12.855Z,70.3
2022-12-04T05:38:20.334Z,81.3
2022-12-04T05:40:21.926Z,67.7
2022-12-04T05:46:29.515Z,78.9
2022-12-04T05:48:31.018Z,72.6
2022-12-04T05:56:42.799Z,82.3
2022-12-04T05:58:44.414Z,76.9
2022-12-04T06:00:46.006Z,69.8
2022-12-04T06:02:50.327Z,63.9
2022-12-04T06:04:51.884Z,69.4
2022-12-04T06:06:53.485Z,80.1
2022-12-04T06:08:57.764Z,81.6
2022-12-04T06:10:59.471Z,75.1
2022-12-04T06:13:00.983Z,74.4
2022-12-04T06:15:05.253Z,86.2
2022-12-04T06:17:06.843Z,72.4
2022-12-04T06:19:08.426Z,77.3
2022-12-04T06:21:12.726Z,71.8
2022-12-04T06:23:14.327Z,74
2022-12-04T06:25:15.944Z,67.7
2022-12-04T06:27:28.464Z,83.7
2022-12-04T06:29:21.798Z,67.3
2022-12-04T06:31:23.426Z,74.5
2022-12-04T06:33:27.677Z,80.2
2022-12-04T06:37:30.911Z,82.1
2022-12-04T06:39:35.170Z,80.8
2022-12-04T06:41:36.776Z,74.9
2022-12-04T06:57:34.125Z,67.5
2022-12-04T06:59:35.804Z,81
2022-12-04T07:14:42.195Z,78.7
2022-12-04T07:23:52.824Z,92.8
2022-12-04T07:25:54.425Z,74.3
2022-12-04T07:27:56.004Z,75
2022-12-04T07:30:00.318Z,66.1
2022-12-04T07:32:02.075Z,77.8
2022-12-04T07:34:03.550Z,82
2022-12-04T07:39:12.164Z,-1
2022-12-04T07:43:20.308Z,69.1
2022-12-04T07:47:26.167Z,72.9
2022-12-04T07:51:32.039Z,93
2022-12-04T07:53:33.665Z,78
2022-12-04T07:55:35.223Z,89.1
2022-12-04T07:59:41.114Z,85.2
2022-12-04T08:01:42.885Z,79.2
2022-12-04T08:03:48.137Z,69.5
2022-12-04T08:05:48.571Z,75.6
2022-12-04T08:07:50.222Z,80.5
2022-12-04T08:09:54.809Z,68.6
2022-12-04T08:13:57.621Z,92.4
2022-12-04T08:22:56.555Z,66
2022-12-04T08:24:58.152Z,73.6
2022-12-04T08:26:59.726Z,73.9
2022-12-04T08:29:04.006Z,81.4
2022-12-04T08:31:05.774Z,60.7
2022-12-04T08:33:07.194Z,75.3
2022-12-04T08:35:11.467Z,65.6
2022-12-04T08:37:13.096Z,78.2
2022-12-04T08:39:14.649Z,72.6
2022-12-04T08:41:18.951Z,76.9
2022-12-04T08:45:22.113Z,73.7
2022-12-04T08:47:26.401Z,75.5
2022-12-04T08:49:28.061Z,78.2
2022-12-04T08:53:33.924Z,62.9
2022-12-04T08:55:35.526Z,53
2022-12-04T08:57:37.117Z,74.1
2022-12-04T08:59:41.404Z,78.8
2022-12-04T09:01:43.175Z,64.7
2022-12-04T09:03:44.614Z,60.4
2022-12-04T09:10:56.913Z,63.3
2022-12-04T09:12:58.523Z,62.4
2022-12-04T09:15:02.844Z,60.1
2022-12-04T09:17:04.454Z,63.2
2022-12-04T09:19:06.104Z,45.6
2022-12-04T09:21:10.395Z,53.8
2022-12-04T09:25:13.623Z,49.5
2022-12-04T09:27:17.907Z,64.1
2022-12-04T09:37:28.691Z,44
2022-12-04T09:39:33.057Z,45.5
2022-12-04T09:41:34.590Z,54.7
2022-12-04T09:45:40.527Z,49.9
2022-12-04T09:49:43.765Z,29
2022-12-04T09:51:48.076Z,41
2022-12-04T09:53:49.744Z,37.1
2022-12-04T09:55:51.295Z,37.2
2022-12-04T09:58:01.280Z,34.5
2022-12-04T10:01:58.862Z,40.6
2022-12-04T10:04:06.421Z,35.1
2022-12-04T10:06:04.808Z,34.7
2022-12-04T10:08:06.531Z,35.6
2022-12-04T10:10:10.717Z,28.2
2022-12-04T10:12:12.350Z,25.4
2022-12-04T10:14:13.955Z,32.6
2022-12-04T10:16:18.348Z,27
2022-12-04T10:18:19.940Z,41.4
2022-12-04T10:20:21.518Z,34.1
2022-12-04T10:22:25.837Z,29
2022-12-04T10:24:27.443Z,23.8
2022-12-04T10:26:29.082Z,17.3
2022-12-04T10:28:33.376Z,26.8
2022-12-04T10:30:34.995Z,27.1
2022-12-04T10:32:36.636Z,22.1
2022-12-04T10:34:45.478Z,25.4
2022-12-04T10:36:42.595Z,28
2022-12-04T10:38:44.228Z,23.9
2022-12-04T10:51:46.587Z,18.8
2022-12-04T10:53:50.873Z,24.7
2022-12-04T10:57:54.153Z,16.9
2022-12-04T10:59:58.848Z,23.9
2022-12-04T11:10:09.325Z,21.4
2022-12-04T11:12:19.754Z,17.3
2022-12-04T11:14:21.383Z,21.8
2022-12-04T11:22:30.596Z,23.1
2022-12-04T11:24:34.897Z,23.2
2022-12-04T11:26:36.559Z,20.7
2022-12-04T11:28:42.654Z,16.8
2022-12-04T11:33:43.657Z,20.7
2022-12-04T11:35:45.284Z,20.9
2022-12-04T11:37:46.911Z,20.4
2022-12-04T11:39:51.231Z,21.4
2022-12-04T11:41:52.857Z,19.5
2022-12-04T11:43:59.627Z,18.6
2022-12-04T11:51:06.922Z,21.3
2022-12-04T11:53:08.549Z,15.1
2022-12-04T11:55:12.872Z,17.7
2022-12-04T11:57:14.531Z,19.4
2022-12-04T11:59:16.160Z,20.7
2022-12-04T12:01:20.483Z,18.5
2022-12-04T12:05:23.792Z,17.3
2022-12-04T12:11:31.404Z,22.1
2022-12-04T12:17:39.037Z,18.1
2022-12-04T12:19:43.349Z,28.7
2022-12-04T12:30:58.977Z,24.9
2022-12-04T12:32:57.785Z,19.5
2022-12-04T12:35:02.133Z,18.4
2022-12-04T12:37:03.774Z,21
2022-12-04T12:39:05.437Z,22.3
2022-12-04T12:41:09.777Z,23
2022-12-04T12:45:13.064Z,31.5
2022-12-04T12:47:17.396Z,31.8
2022-12-04T12:51:30.365Z,36.2
2022-12-04T12:53:25.023Z,25.2
2022-12-04T12:57:28.329Z,38.2
2022-12-04T12:59:32.646Z,39.7
2022-12-04T13:01:34.361Z,34.8
2022-12-04T13:03:35.977Z,27.8
2022-12-04T13:10:48.017Z,32.1
2022-12-04T13:12:49.728Z,38.1
2022-12-04T13:16:55.726Z,37.3
2022-12-04T13:18:57.317Z,43.2
2022-12-04T13:27:56.456Z,33.4
2022-12-04T13:29:58.434Z,48.9
2022-12-04T13:31:59.871Z,41.1
2022-12-04T13:34:04.079Z,42.6
2022-12-04T13:38:07.388Z,31.4
2022-12-04T13:40:11.706Z,31
2022-12-04T13:42:13.350Z,41.8
2022-12-04T13:44:15.011Z,47.6
2022-12-04T13:50:22.624Z,46.4
2022-12-04T13:56:30.251Z,57.9
2022-12-04T14:14:53.644Z,34.2
2022-12-04T14:18:56.720Z,42.4
2022-12-04T14:26:09.777Z,50.7
2022-12-04T14:28:11.399Z,57.7
2022-12-04T14:33:20.282Z,46.4
2022-12-04T14:46:37.685Z,45.6
2022-12-04T14:48:41.919Z,45.9
2022-12-04T14:52:45.193Z,39
2022-12-04T14:56:51.175Z,45.2
2022-12-04T14:58:52.824Z,41.4
2022-12-04T15:00:57.131Z,40
2022-12-04T15:02:58.885Z,55.4
2022-12-04T15:07:04.747Z,44
2022-12-04T15:11:08.054Z,45.3
2022-12-04T15:17:15.647Z,40.6
2022-12-04T15:48:06.699Z,39.4
2022-12-04T15:58:17.646Z,42.2
2022-12-04T16:16:03.275Z,43.7
2022-12-04T16:18:04.951Z,43.2
2022-12-04T16:22:10.948Z,43.7
2022-12-04T16:24:12.606Z,36
2022-12-04T16:26:16.980Z,38.1
2022-12-04T16:30:20.328Z,33.6
2022-12-04T16:42:13.940Z,-1
2022-12-04T16:44:20.558Z,27.9
2022-12-04T16:46:22.241Z,36.9
2022-12-04T16:48:26.681Z,33.3
2022-12-04T16:50:28.325Z,46.2
2022-12-04T16:52:29.943Z,44.9
2022-12-04T16:54:34.347Z,46
2022-12-04T16:58:37.687Z,44.9
2022-12-04T17:07:37.055Z,34.4
2022-12-04T17:09:38.621Z,36.1
2022-12-04T17:11:40.362Z,49.4
2022-12-04T17:16:49.347Z,52.1
2022-12-04T17:22:58.629Z,51.4
2022-12-04T17:25:02.299Z,57.9
2022-12-04T17:27:03.588Z,59.9
2022-12-04T17:29:07.902Z,52
2022-12-04T17:31:09.601Z,63.7
2022-12-04T17:33:11.253Z,49.8
2022-12-04T17:35:15.604Z,60
2022-12-04T17:37:17.259Z,49.6
2022-12-04T17:39:19.033Z,73.5
2022-12-04T17:41:23.255Z,67.9
2022-12-04T17:43:24.936Z,51.3
2022-12-04T17:45:26.606Z,49.1
2022-12-04T17:47:30.962Z,64.1
2022-12-04T17:53:38.656Z,65.6
2022-12-04T17:59:46.436Z,71.2
2022-12-04T18:03:49.745Z,54.1
2022-12-04T18:11:02.271Z,65.6
2022-12-04T18:13:03.982Z,64.5
2022-12-04T18:15:08.428Z,63.3
2022-12-04T18:19:11.611Z,62.9
2022-12-04T18:21:15.967Z,72
2022-12-04T18:25:19.441Z,59.1
2022-12-04T18:27:23.659Z,53
2022-12-04T18:31:27.038Z,58.9
2022-12-04T18:37:34.646Z,57.4
2022-12-04T18:39:39.009Z,59.1
2022-12-04T18:41:40.685Z,78.2
2022-12-04T18:43:42.343Z,61.6
2022-12-04T18:45:46.772Z,58.7
2022-12-04T18:49:49.998Z,51.2
2022-12-04T18:51:54.369Z,68.3
2022-12-04T18:53:56.101Z,52.2
2022-12-04T18:55:57.807Z,70.8
2022-12-04T18:58:02.032Z,68.7
2022-12-04T19:00:03.691Z,66.8
2022-12-04T19:02:05.446Z,65.1
2022-12-04T19:24:44.988Z,68.7
2022-12-04T19:32:57.002Z,78
2022-12-04T19:34:58.688Z,88.7
2022-12-04T19:39:04.701Z,56.6
2022-12-04T19:41:06.386Z,80.8
2022-12-04T19:43:08.063Z,81.3
2022-12-04T19:45:12.375Z,60.7
2022-12-04T19:49:15.713Z,77.4
2022-12-04T19:53:21.747Z,68.8
2022-12-04T19:55:23.401Z,74.1
2022-12-04T19:57:27.833Z,75.2
2022-12-04T19:59:33.172Z,72.8
2022-12-04T20:01:31.175Z,84.2
2022-12-04T20:03:35.448Z,77.8
2022-12-04T20:05:37.122Z,70.5
2022-12-04T20:07:38.810Z,75.6
2022-12-04T20:09:47.329Z,74.7
2022-12-04T20:39:47.057Z,54.5
2022-12-04T20:43:50.415Z,72.9
2022-12-04T20:45:54.861Z,67.5
2022-12-04T20:47:56.443Z,72.4
2022-12-04T20:49:58.507Z,60.4
2022-12-04T20:52:02.466Z,60
2022-12-04T20:54:04.148Z,57.1
2022-12-04T20:56:05.812Z,72.4
2022-12-04T21:30:58.276Z,65
2022-12-04T21:33:02.534Z,70.9
2022-12-04T21:37:05.886Z,62.9
2022-12-04T21:39:10.275Z,65
2022-12-04T21:41:11.958Z,70.2
2022-12-04T21:43:13.622Z,58.7
2022-12-04T21:45:17.969Z,65.4
2022-12-04T21:47:19.656Z,55.8
2022-12-04T21:55:35.180Z,54.1
2022-12-04T21:59:41.229Z,58.2
2022-12-04T22:01:43.047Z,62.6
2022-12-04T22:03:47.277Z,46.5
2022-12-04T22:05:48.980Z,61.8
2022-12-04T22:07:50.760Z,48.7
2022-12-04T22:09:55.218Z,53.5
2022-12-04T22:13:58.415Z,51
2022-12-04T22:16:02.909Z,56.9
2022-12-04T22:18:04.524Z,60.2
2022-12-04T22:20:06.169Z,67.4
2022-12-04T22:22:10.574Z,58.7
2022-12-04T22:24:12.242Z,58.7
2022-12-04T22:26:13.939Z,62.5
2022-12-04T22:28:18.330Z,53.2
2022-12-04T22:30:20.002Z,68.9
2022-12-04T22:32:21.687Z,49.9
2022-12-04T22:34:26.078Z,59.9
2022-12-04T22:36:27.780Z,57.1
2022-12-04T22:38:29.470Z,53.4
2022-12-04T22:43:42.560Z,45.9
2022-12-04T22:45:44.244Z,62.2
2022-12-04T22:47:45.968Z,40.4
2022-12-04T22:57:59.781Z,54.3
2022-12-04T23:00:01.476Z,53.7
2022-12-04T23:02:05.839Z,66.4
2022-12-04T23:04:07.594Z,71
2022-12-04T23:06:09.278Z,61.3
2022-12-04T23:08:13.715Z,53.9
2022-12-04T23:10:15.367Z,58.8
2022-12-04T23:12:17.056Z,41.5
2022-12-04T23:23:33.916Z,52.4
2022-12-04T23:27:37.345Z,45.1
2022-12-04T23:29:53.122Z,62.1
2022-12-04T23:33:45.102Z,38.8
2022-12-04T23:41:57.275Z,54
2022-12-04T23:43:58.955Z,58.7
2022-12-04T23:50:06.775Z,58
2022-12-04T23:52:08.456Z,55.2
2022-12-04T23:54:12.860Z,47
2022-12-04T23:56:14.579Z,47.5
2022-12-04T23:58:16.272Z,47
